Time,TemperatureF,DewpointF,PressureIn,WindDirection,WindDirectionDegrees,WindSpeedMPH,WindSpeedGustMPH,Humidity,HourlyPrecipIn,Conditions,Clouds,dailyrainin,SoftwareType,DateUTC
2013-07-04 00:14:00,72.5,59.6,29.47,West,270,0.0,-999.0,64,-99.99,,,0.00,Acu-Link.com,2013-07-04 07:14:00,
2013-07-04 00:30:00,72.7,59.8,29.47,West,270,1.7,-999.0,64,-99.99,,,0.00,Acu-Link.com,2013-07-04 07:30:00,
2013-07-04 00:45:00,72.1,59.7,29.48,WNW,292,2.2,-999.0,65,-99.99,,,0.00,Acu-Link.com,2013-07-04 07:45:00,
2013-07-04 01:00:00,73.8,60.0,29.48,West,270,2.2,-999.0,62,-99.99,,,0.00,Acu-Link.com,2013-07-04 08:00:00,
2013-07-04 01:16:00,74.7,60.3,29.48,SSW,202,0.0,-999.0,61,-99.99,,,0.00,Acu-Link.com,2013-07-04 08:16:00,
2013-07-04 01:31:00,74.8,60.4,29.48,North,0,2.7,-999.0,61,-99.99,,,0.00,Acu-Link.com,2013-07-04 08:31:00,
2013-07-04 01:46:00,74.8,60.9,29.48,NE,45,0.0,-999.0,62,-99.99,,,0.00,Acu-Link.com,2013-07-04 08:46:00,
2013-07-04 02:01:00,81.7,62.3,29.47,WNW,292,4.2,-999.0,52,-99.99,,,0.00,Acu-Link.com,2013-07-04 09:01:00,
2013-07-04 02:17:00,83.3,63.3,29.47,West,270,4.7,-999.0,51,-99.99,,,0.00,Acu-Link.com,2013-07-04 09:17:00,
2013-07-04 02:32:00,82.4,63.0,29.46,SW,225,1.7,-999.0,52,-99.99,,,0.00,Acu-Link.com,2013-07-04 09:32:00,
2013-07-04 02:47:00,77.9,61.4,29.47,NNE,22,0.0,-999.0,57,-99.99,,,0.00,Acu-Link.com,2013-07-04 09:47:00,
2013-07-04 03:03:00,76.3,61.4,29.47,NE,45,1.7,-999.0,60,-99.99,,,0.00,Acu-Link.com,2013-07-04 10:03:00,
2013-07-04 03:18:00,74.8,60.9,29.48,ENE,67,0.0,-999.0,62,-99.99,,,0.00,Acu-Link.com,2013-07-04 10:18:00,
2013-07-04 03:33:00,73.8,60.4,29.47,SE,135,0.0,-999.0,63,-99.99,,,0.00,Acu-Link.com,2013-07-04 10:33:00,
2013-07-04 03:48:00,72.7,60.7,29.48,West,270,1.7,-999.0,66,-99.99,,,0.00,Acu-Link.com,2013-07-04 10:48:00,
2013-07-04 04:04:00,71.6,59.2,29.48,ESE,112,0.0,-999.0,65,-99.99,,,0.00,Acu-Link.com,2013-07-04 11:04:00,
2013-07-04 04:19:00,70.9,59.0,29.48,SE,135,0.0,-999.0,66,-99.99,,,0.00,Acu-Link.com,2013-07-04 11:19:00,
2013-07-04 04:34:00,70.2,58.7,29.48,East,90,0.0,-999.0,67,-99.99,,,0.00,Acu-Link.com,2013-07-04 11:34:00,
2013-07-04 04:50:00,69.8,58.8,29.47,East,90,0.0,-999.0,68,-99.99,,,0.00,Acu-Link.com,2013-07-04 11:50:00,
2013-07-04 05:05:00,69.4,58.8,29.47,WNW,292,0.0,-999.0,69,-99.99,,,0.00,Acu-Link.com,2013-07-04 12:05:00,
2013-07-04 05:20:00,69.1,58.9,29.47,WNW,292,0.0,-999.0,70,-99.99,,,0.00,Acu-Link.com,2013-07-04 12:20:00,
2013-07-04 05:35:00,69.8,58.8,29.47,ESE,112,0.0,-999.0,68,-99.99,,,0.00,Acu-Link.com,2013-07-04 12:35:00,
2013-07-04 05:51:00,69.3,58.7,29.47,SSW,202,1.1,-999.0,69,-99.99,,,0.00,Acu-Link.com,2013-07-04 12:51:00,
2013-07-04 06:06:00,69.1,58.9,29.47,West,270,0.0,-999.0,70,-99.99,,,0.00,Acu-Link.com,2013-07-04 13:06:00,
2013-07-04 06:21:00,69.3,59.1,29.47,SSW,202,0.0,-999.0,70,-99.99,,,0.00,Acu-Link.com,2013-07-04 13:21:00,
2013-07-04 06:36:00,69.4,58.8,29.47,SSE,157,0.0,-999.0,69,-99.99,,,0.00,Acu-Link.com,2013-07-04 13:36:00,
2013-07-04 06:52:00,70.7,59.2,29.47,WNW,292,0.0,-999.0,67,-99.99,,,0.00,Acu-Link.com,2013-07-04 13:52:00,
2013-07-04 07:07:00,71.8,59.0,29.47,West,270,0.0,-999.0,64,-99.99,,,0.00,Acu-Link.com,2013-07-04 14:07:00,
2013-07-04 07:22:00,74.1,60.2,29.48,ESE,112,0.0,-999.0,62,-99.99,,,0.00,Acu-Link.com,2013-07-04 14:22:00,
2013-07-04 07:38:00,76.5,61.1,29.49,SSW,202,1.1,-999.0,59,-99.99,,,0.00,Acu-Link.com,2013-07-04 14:38:00,
2013-07-04 07:53:00,77.0,61.6,29.49,WSW,247,1.7,-999.0,59,-99.99,,,0.00,Acu-Link.com,2013-07-04 14:53:00,
2013-07-04 08:08:00,77.4,61.4,29.49,SSE,157,0.0,-999.0,58,-99.99,,,0.00,Acu-Link.com,2013-07-04 15:08:00,
2013-07-04 08:23:00,77.9,61.4,29.50,East,90,0.0,-999.0,57,-99.99,,,0.00,Acu-Link.com,2013-07-04 15:23:00,
2013-07-04 08:38:00,78.8,62.3,29.51,South,180,1.7,-999.0,57,-99.99,,,0.00,Acu-Link.com,2013-07-04 15:38:00,
2013-07-04 08:54:00,80.2,62.5,29.50,South,180,1.7,-999.0,55,-99.99,,,0.00,Acu-Link.com,2013-07-04 15:54:00,
2013-07-04 09:09:00,83.3,63.8,29.51,SSE,157,2.2,-999.0,52,-99.99,,,0.00,Acu-Link.com,2013-07-04 16:09:00,
2013-07-04 09:24:00,85.5,63.5,29.51,South,180,2.7,-999.0,48,-99.99,,,0.00,Acu-Link.com,2013-07-04 16:24:00,
2013-07-04 09:39:00,85.5,62.9,29.51,West,270,3.7,-999.0,47,-99.99,,,0.00,Acu-Link.com,2013-07-04 16:39:00,
2013-07-04 09:54:00,85.6,61.8,29.50,NNW,337,2.2,-999.0,45,-99.99,,,0.00,Acu-Link.com,2013-07-04 16:54:00,
2013-07-04 10:10:00,88.0,62.7,29.50,ESE,112,2.2,-999.0,43,-99.99,,,0.00,Acu-Link.com,2013-07-04 17:10:00,
2013-07-04 10:25:00,90.7,63.7,29.49,NNW,337,2.2,-999.0,41,-99.99,,,0.00,Acu-Link.com,2013-07-04 17:25:00,
2013-07-04 10:40:00,91.2,64.2,29.49,SSW,202,3.2,-999.0,41,-99.99,,,0.00,Acu-Link.com,2013-07-04 17:40:00,
2013-07-04 10:56:00,89.4,63.2,29.49,NW,315,5.8,-999.0,42,-99.99,,,0.00,Acu-Link.com,2013-07-04 17:56:00,
2013-07-04 11:11:00,91.9,64.1,29.49,SSW,202,4.2,-999.0,40,-99.99,,,0.00,Acu-Link.com,2013-07-04 18:11:00,
2013-07-04 11:26:00,92.8,65.6,29.49,SSE,157,1.7,-999.0,41,-99.99,,,0.00,Acu-Link.com,2013-07-04 18:26:00,
2013-07-04 11:42:00,95.2,66.3,29.49,East,90,2.2,-999.0,39,-99.99,,,0.00,Acu-Link.com,2013-07-04 18:42:00,
2013-07-04 11:57:00,94.3,65.5,29.50,ENE,67,3.2,-999.0,39,-99.99,,,0.00,Acu-Link.com,2013-07-04 18:57:00,
2013-07-04 12:13:00,96.8,66.2,29.49,SE,135,2.7,-999.0,37,-99.99,,,0.00,Acu-Link.com,2013-07-04 19:13:00,
2013-07-04 12:28:00,97.2,66.5,29.49,WNW,292,2.2,-999.0,37,-99.99,,,0.00,Acu-Link.com,2013-07-04 19:28:00,
2013-07-04 12:43:00,98.8,67.9,29.49,SW,225,1.7,-999.0,37,-99.99,,,0.00,Acu-Link.com,2013-07-04 19:43:00,
2013-07-04 12:58:00,101.5,67.8,29.48,South,180,0.0,-999.0,34,-99.99,,,0.00,Acu-Link.com,2013-07-04 19:58:00,
2013-07-04 13:14:00,103.6,67.9,29.48,SE,135,2.2,-999.0,32,-99.99,,,0.00,Acu-Link.com,2013-07-04 20:14:00,
2013-07-04 13:29:00,102.7,65.2,29.47,North,0,3.7,-999.0,30,-99.99,,,0.00,Acu-Link.com,2013-07-04 20:29:00,
2013-07-04 13:44:00,101.8,67.2,29.46,NNE,22,2.7,-999.0,33,-99.99,,,0.00,Acu-Link.com,2013-07-04 20:44:00,
2013-07-04 13:59:00,102.0,66.5,29.46,West,270,3.2,-999.0,32,-99.99,,,0.00,Acu-Link.com,2013-07-04 20:59:00,
2013-07-04 14:15:00,104.2,66.5,29.46,South,180,1.1,-999.0,30,-99.99,,,0.00,Acu-Link.com,2013-07-04 21:15:00,
2013-07-04 14:30:00,104.0,67.3,29.45,ESE,112,2.2,-999.0,31,-99.99,,,0.00,Acu-Link.com,2013-07-04 21:30:00,
2013-07-04 14:45:00,103.5,67.8,29.44,NW,315,4.2,-999.0,32,-99.99,,,0.00,Acu-Link.com,2013-07-04 21:45:00,
2013-07-04 15:00:00,103.5,65.9,29.44,ESE,112,3.7,-999.0,30,-99.99,,,0.00,Acu-Link.com,2013-07-04 22:00:00,
2013-07-04 15:16:00,102.6,66.1,29.43,SW,225,3.2,-999.0,31,-99.99,,,0.00,Acu-Link.com,2013-07-04 22:16:00,
2013-07-04 15:31:00,100.8,66.4,29.42,NW,315,3.7,-999.0,33,-99.99,,,0.00,Acu-Link.com,2013-07-04 22:31:00,
2013-07-04 15:47:00,101.1,65.7,29.42,West,270,4.2,-999.0,32,-99.99,,,0.00,Acu-Link.com,2013-07-04 22:47:00,
2013-07-04 16:02:00,100.4,65.1,29.41,NNW,337,2.7,-999.0,32,-99.99,,,0.00,Acu-Link.com,2013-07-04 23:02:00,
2013-07-04 16:17:00,100.8,64.6,29.40,South,180,3.7,-999.0,31,-99.99,,,0.00,Acu-Link.com,2013-07-04 23:17:00,
2013-07-04 16:33:00,101.1,63.9,29.40,WSW,247,2.2,-999.0,30,-99.99,,,0.00,Acu-Link.com,2013-07-04 23:33:00,
2013-07-04 16:48:00,100.6,64.4,29.39,NNE,22,3.7,-999.0,31,-99.99,,,0.00,Acu-Link.com,2013-07-04 23:48:00,
2013-07-04 17:03:00,100.8,63.6,29.40,West,270,6.3,-999.0,30,-99.99,,,0.00,Acu-Link.com,2013-07-05 00:03:00,
2013-07-04 17:19:00,101.8,63.5,29.39,WSW,247,3.7,-999.0,29,-99.99,,,0.00,Acu-Link.com,2013-07-05 00:19:00,
2013-07-04 17:34:00,102.7,63.3,29.38,NNE,22,3.7,-999.0,28,-99.99,,,0.00,Acu-Link.com,2013-07-05 00:34:00,
2013-07-04 17:49:00,101.1,61.9,29.38,SSW,202,3.2,-999.0,28,-99.99,,,0.00,Acu-Link.com,2013-07-05 00:49:00,
2013-07-04 18:04:00,100.4,62.3,29.37,SE,135,2.7,-999.0,29,-99.99,,,0.00,Acu-Link.com,2013-07-05 01:04:00,
2013-07-04 18:20:00,99.1,62.2,29.38,East,90,3.2,-999.0,30,-99.99,,,0.00,Acu-Link.com,2013-07-05 01:20:00,
2013-07-04 18:35:00,97.9,61.1,29.37,WNW,292,5.8,-999.0,30,-99.99,,,0.00,Acu-Link.com,2013-07-05 01:35:00,
2013-07-04 18:50:00,97.2,60.5,29.38,SW,225,4.2,-999.0,30,-99.99,,,0.00,Acu-Link.com,2013-07-05 01:50:00,
2013-07-04 19:05:00,94.1,65.3,29.38,NW,315,3.2,-999.0,39,-99.99,,,0.00,Acu-Link.com,2013-07-05 02:05:00,
2013-07-04 19:21:00,91.9,61.1,29.38,NE,45,2.2,-999.0,36,-99.99,,,0.00,Acu-Link.com,2013-07-05 02:21:00,
2013-07-04 19:36:00,89.4,61.1,29.38,ESE,112,2.2,-999.0,39,-99.99,,,0.00,Acu-Link.com,2013-07-05 02:36:00,
2013-07-04 19:51:00,86.2,59.7,29.38,NW,315,3.7,-999.0,41,-99.99,,,0.00,Acu-Link.com,2013-07-05 02:51:00,
2013-07-04 20:07:00,86.7,58.7,29.38,NW,315,4.2,-999.0,39,-99.99,,,0.00,Acu-Link.com,2013-07-05 03:07:00,
2013-07-04 20:22:00,83.1,59.5,29.38,WSW,247,2.2,-999.0,45,-99.99,,,0.01,Acu-Link.com,2013-07-05 03:22:00,
2013-07-04 20:37:00,85.5,56.2,29.38,West,270,5.8,-999.0,37,-99.99,,,0.01,Acu-Link.com,2013-07-05 03:37:00,
2013-07-04 20:53:00,84.0,57.1,29.39,SSE,157,1.7,-999.0,40,-99.99,,,0.01,Acu-Link.com,2013-07-05 03:53:00,
2013-07-04 21:08:00,83.8,54.7,29.39,West,270,4.7,-999.0,37,-99.99,,,0.01,Acu-Link.com,2013-07-05 04:08:00,
2013-07-04 21:23:00,83.5,54.5,29.39,South,180,3.7,-999.0,37,-99.99,,,0.01,Acu-Link.com,2013-07-05 04:23:00,
2013-07-04 21:38:00,83.3,53.5,29.39,WSW,247,4.7,-999.0,36,-99.99,,,0.01,Acu-Link.com,2013-07-05 04:38:00,
2013-07-04 21:53:00,81.7,52.9,29.40,NE,45,2.2,-999.0,37,-99.99,,,0.01,Acu-Link.com,2013-07-05 04:53:00,
2013-07-04 22:09:00,80.4,53.2,29.40,WSW,247,2.7,-999.0,39,-99.99,,,0.01,Acu-Link.com,2013-07-05 05:09:00,
2013-07-04 22:24:00,78.8,51.7,29.40,SSW,202,1.7,-999.0,39,-99.99,,,0.01,Acu-Link.com,2013-07-05 05:24:00,
2013-07-04 22:39:00,78.4,51.4,29.40,SSE,157,2.7,-999.0,39,-99.99,,,0.01,Acu-Link.com,2013-07-05 05:39:00,
2013-07-04 22:54:00,77.7,51.4,29.40,SE,135,2.7,-999.0,40,-99.99,,,0.01,Acu-Link.com,2013-07-05 05:54:00,
2013-07-04 23:10:00,76.1,50.0,29.40,West,270,3.2,-999.0,40,-99.99,,,0.01,Acu-Link.com,2013-07-05 06:10:00,
2013-07-04 23:25:00,74.8,51.4,29.42,ESE,112,1.7,-999.0,44,-99.99,,,0.01,Acu-Link.com,2013-07-05 06:25:00,
2013-07-04 23:40:00,73.0,51.6,29.41,NW,315,3.2,-999.0,47,-99.99,,,0.01,Acu-Link.com,2013-07-05 06:40:00,
2013-07-04 23:56:00,72.0,51.8,29.41,WNW,292,2.7,-999.0,49,-99.99,,,0.01,Acu-Link.com,2013-07-05 06:56:00,